Time;durP1;ratioP1;P1;durP2;ratioP2;P2;SDS_P1;SDS_P2;PMS_P1;PMS_P2;Temp;Humidity;BMP_temperature;BMP_pressure;BME280_temperature;BME280_humidity;BME280_pressure;Samples;Min_cycle;Max_cycle;Signal;HPM_P1;HPM_P2
2023/05/27 00:01:43;;;;;;;10.60;3.50;;;;;;;13.24;59.91;101435.84;5041759;28;20203;-68
2023/05/27 00:04:09;;;;;;;11.97;3.17;;;;;;;13.30;59.67;101433.31;5047205;28;20212;-70
2023/05/27 00:06:36;;;;;;;12.53;3.47;;;;;;;13.32;59.49;101428.91;5049071;28;20221;-68
2023/05/27 00:09:03;;;;;;;7.47;3.30;;;;;;;13.35;59.21;101428.97;5048029;28;20200;-68
2023/05/27 00:11:29;;;;;;;12.80;2.80;;;;;;;13.36;58.88;101431.66;5041708;28;20206;-69
2023/05/27 00:13:55;;;;;;;11.37;3.03;;;;;;;13.29;59.33;101434.16;5048119;28;20567;-67
2023/05/27 00:16:23;;;;;;;9.67;2.67;;;;;;;13.20;59.50;101436.63;5048036;28;20225;-69
2023/05/27 00:18:49;;;;;;;13.53;3.37;;;;;;;13.01;60.53;101428.25;5046887;28;20664;-70
2023/05/27 00:21:16;;;;;;;7.90;2.63;;;;;;;12.98;60.82;101436.19;5048104;28;21919;-68
2023/05/27 00:23:46;;;;;;;9.23;3.00;;;;;;;13.05;60.25;101434.53;5047721;28;20656;-69
2023/05/27 00:26:13;;;;;;;10.67;3.00;;;;;;;12.94;61.49;101439.66;5048173;28;20226;-70
2023/05/27 00:28:40;;;;;;;8.67;2.80;;;;;;;13.00;60.57;101441.53;5043667;28;20224;-68
2023/05/27 00:31:06;;;;;;;11.00;2.97;;;;;;;12.91;61.31;101438.69;5048523;28;20205;-68
2023/05/27 00:33:33;;;;;;;8.30;3.17;;;;;;;12.87;61.33;101443.06;5045898;28;20198;-69
2023/05/27 00:35:59;;;;;;;11.30;3.00;;;;;;;12.71;62.03;101436.50;5045549;28;20190;-70
2023/05/27 00:38:25;;;;;;;6.63;2.63;;;;;;;12.59;62.49;101428.25;5043049;28;20208;-69
2023/05/27 00:40:53;;;;;;;7.10;2.57;;;;;;;12.67;62.05;101425.75;5048591;28;20205;-69
2023/05/27 00:43:19;;;;;;;8.83;2.50;;;;;;;12.65;62.17;101433.72;5046015;28;20685;-68
2023/05/27 00:45:46;;;;;;;9.80;2.83;;;;;;;12.58;62.95;101431.78;5040707;28;20587;-67
2023/05/27 00:48:12;;;;;;;11.53;3.20;;;;;;;12.75;61.32;101426.81;5040320;28;20202;-68
2023/05/27 00:50:39;;;;;;;10.43;2.73;;;;;;;13.03;60.37;101426.53;5047062;28;20298;-69
2023/05/27 00:53:06;;;;;;;7.60;2.80;;;;;;;12.91;60.37;101425.41;5038245;28;20206;-69
2023/05/27 00:55:32;;;;;;;8.37;2.73;;;;;;;12.96;58.60;101429.94;5047537;28;20568;-70
2023/05/27 00:57:59;;;;;;;9.20;2.83;;;;;;;12.91;60.29;101426.28;5044538;28;20280;-70
2023/05/27 01:00:26;;;;;;;10.97;3.03;;;;;;;13.06;58.35;101431.91;5046456;28;20205;-70
2023/05/27 01:02:53;;;;;;;9.73;2.67;;;;;;;13.14;58.58;101429.41;5040802;28;20197;-69
2023/05/27 01:05:21;;;;;;;7.30;2.80;;;;;;;13.27;57.77;101430.59;5045521;28;20729;-69
2023/05/27 01:07:57;;;;;;;8.13;2.47;;;;;;;13.19;57.91;101427.75;5047864;28;20813;-68
2023/05/27 01:10:42;;;;;;;8.90;2.50;;;;;;;13.19;57.67;101427.75;5046540;28;20200;-68
2023/05/27 01:13:35;;;;;;;8.30;2.90;;;;;;;13.12;58.05;101425.81;5049061;28;20634;-70
2023/05/27 01:16:04;;;;;;;7.67;3.10;;;;;;;13.08;58.69;101426.63;5050922;28;20693;-70
2023/05/27 01:18:33;;;;;;;8.57;2.63;;;;;;;13.07;58.33;101430.16;5051787;28;20191;-69
2023/05/27 01:21:05;;;;;;;9.73;2.87;;;;;;;13.08;58.21;101423.97;5048984;28;20202;-71
2023/05/27 01:23:32;;;;;;;7.80;2.57;;;;;;;13.08;57.73;101418.66;5048294;28;20276;-69
2023/05/27 01:25:59;;;;;;;10.27;3.07;;;;;;;12.85;58.85;101420.84;5050941;28;20716;-70
2023/05/27 01:28:26;;;;;;;8.27;2.93;;;;;;;12.69;59.57;101416.06;5050360;28;20682;-70
2023/05/27 01:30:57;;;;;;;9.97;3.27;;;;;;;12.70;59.42;101415.19;5046294;28;20194;-69
2023/05/27 01:33:27;;;;;;;10.63;3.07;;;;;;;12.69;59.58;101418.72;5051124;28;20639;-70
2023/05/27 01:36:01;;;;;;;8.90;3.07;;;;;;;12.71;59.34;101415.22;5050036;28;20196;-70
2023/05/27 01:38:30;;;;;;;10.43;3.07;;;;;;;12.61;59.89;101415.00;5049222;28;20201;-70
2023/05/27 01:40:58;;;;;;;7.07;2.70;;;;;;;12.39;61.09;101414.53;5045059;28;20224;-68
2023/05/27 01:43:24;;;;;;;6.57;3.20;;;;;;;12.18;61.12;101409.63;5050762;28;20586;-70
2023/05/27 01:45:51;;;;;;;7.63;3.00;;;;;;;12.18;61.28;101412.28;5050219;28;20681;-71
2023/05/27 01:48:19;;;;;;;13.57;3.10;;;;;;;12.11;62.05;101410.38;5039899;28;22159;-70
2023/05/27 01:50:45;;;;;;;7.60;2.60;;;;;;;12.10;61.26;101407.66;5048681;28;20300;-70
2023/05/27 01:53:12;;;;;;;9.13;3.20;;;;;;;12.29;60.77;101409.88;5039598;28;20223;-70
2023/05/27 01:55:38;;;;;;;10.67;3.00;;;;;;;12.14;61.31;101405.13;5046352;28;20203;-70
2023/05/27 01:58:05;;;;;;;7.77;2.73;;;;;;;11.96;62.29;101406.41;5046494;28;20233;-70
2023/05/27 02:00:31;;;;;;;8.13;2.77;;;;;;;11.76;63.01;101412.13;5044844;28;20191;-70
2023/05/27 02:02:58;;;;;;;5.13;2.50;;;;;;;11.59;63.84;101408.13;5042181;28;20596;-70
2023/05/27 02:05:24;;;;;;;10.07;3.00;;;;;;;11.50;64.57;101410.56;5048400;28;20197;-69
2023/05/27 02:07:50;;;;;;;7.97;2.83;;;;;;;11.40;65.03;101396.16;5050128;28;20807;-71
2023/05/27 02:10:17;;;;;;;7.63;2.50;;;;;;;11.29;66.01;101408.25;5044158;28;20207;-70
2023/05/27 02:12:43;;;;;;;7.27;2.60;;;;;;;11.24;66.04;101402.81;5044159;28;20197;-72
2023/05/27 02:15:10;;;;;;;6.30;2.43;;;;;;;11.31;65.87;101393.28;5049164;28;20290;-71
2023/05/27 02:17:37;;;;;;;12.63;3.43;;;;;;;11.27;65.54;101404.66;5038869;28;20322;-70
2023/05/27 02:20:04;;;;;;;9.07;2.87;;;;;;;11.57;64.27;101397.47;5049161;28;20242;-70
2023/05/27 02:22:31;;;;;;;10.57;2.93;;;;;;;11.70;62.96;101397.81;5041032;28;20194;-72
2023/05/27 02:24:57;;;;;;;8.47;2.83;;;;;;;11.86;61.67;101392.94;5048642;28;20204;-73
2023/05/27 02:27:24;;;;;;;8.87;2.50;;;;;;;12.13;60.63;101395.34;5047855;28;20772;-73
2023/05/27 02:29:50;;;;;;;5.07;2.60;;;;;;;12.30;59.91;101398.38;5038131;28;20241;-75
2023/05/27 02:32:17;;;;;;;7.13;2.60;;;;;;;12.17;60.08;101391.91;5050080;28;20702;-74
2023/05/27 02:34:44;;;;;;;9.07;2.67;;;;;;;12.09;60.71;101395.25;5050765;28;20204;-73
2023/05/27 02:37:11;;;;;;;7.83;2.23;;;;;;;11.96;61.09;101394.03;5048292;28;20211;-72
2023/05/27 02:39:38;;;;;;;7.00;2.53;;;;;;;11.82;61.55;101387.53;5042843;28;20476;-73
2023/05/27 02:42:05;;;;;;;4.90;2.30;;;;;;;11.64;62.03;101393.25;5049363;28;20199;-72
2023/05/27 02:44:31;;;;;;;8.77;2.77;;;;;;;11.65;61.93;101392.41;5043109;28;20272;-74
2023/05/27 02:47:00;;;;;;;9.40;2.67;;;;;;;11.65;62.44;101381.78;5038802;28;20264;-74
2023/05/27 02:49:27;;;;;;;8.60;3.07;;;;;;;11.67;62.11;101387.13;5043088;28;20283;-73
2023/05/27 02:51:54;;;;;;;8.37;2.70;;;;;;;11.46;62.69;101384.81;5035582;28;20205;-75
2023/05/27 02:54:20;;;;;;;8.40;2.73;;;;;;;11.34;63.54;101379.19;5033275;28;20203;-76
2023/05/27 02:56:47;;;;;;;5.57;2.43;;;;;;;11.23;63.23;101379.81;5047386;28;20684;-78
2023/05/27 02:59:13;;;;;;;8.93;2.70;;;;;;;11.20;63.71;101376.16;5021821;28;20663;-76
2023/05/27 03:01:42;;;;;;;8.83;2.50;;;;;;;11.07;65.25;101374.94;5042319;28;20211;-78
2023/05/27 03:04:08;;;;;;;8.83;2.77;;;;;;;11.06;64.83;101383.75;5047025;28;20201;-78
2023/05/27 03:06:35;;;;;;;8.80;2.70;;;;;;;11.09;64.97;101378.53;5040499;28;20305;-78
2023/05/27 03:09:03;;;;;;;9.00;3.10;;;;;;;10.89;66.28;101375.34;5039312;28;20199;-77
2023/05/27 03:11:29;;;;;;;7.73;2.80;;;;;;;10.82;66.17;101377.78;5043677;28;20201;-79
2023/05/27 03:13:56;;;;;;;6.30;2.87;;;;;;;11.02;65.85;101380.97;5050262;28;20242;-79
2023/05/27 03:16:22;;;;;;;6.67;2.70;;;;;;;11.04;65.69;101379.25;5047988;28;21950;-79
2023/05/27 03:18:49;;;;;;;9.17;2.50;;;;;;;10.96;66.47;101385.25;5041282;28;20202;-78
2023/05/27 03:21:15;;;;;;;9.87;2.63;;;;;;;10.91;66.15;101381.59;5046169;28;20202;-76
2023/05/27 03:23:42;;;;;;;8.37;3.07;;;;;;;10.75;67.12;101381.09;5048554;28;20197;-78
2023/05/27 03:26:10;;;;;;;9.07;2.80;;;;;;;10.61;68.51;101378.06;5040483;28;20271;-79
2023/05/27 03:28:37;;;;;;;8.37;2.80;;;;;;;10.50;69.92;101384.81;5040387;28;20205;-78
2023/05/27 03:31:04;;;;;;;7.13;2.73;;;;;;;10.34;71.06;101376.38;5048266;28;20659;-77
2023/05/27 03:33:30;;;;;;;10.57;2.80;;;;;;;10.34;70.69;101375.47;5048032;28;20196;-75
2023/05/27 03:35:57;;;;;;;13.17;2.63;;;;;;;10.34;70.25;101368.44;5046893;28;20203;-75
2023/05/27 03:38:23;;;;;;;6.63;2.80;;;;;;;10.47;70.51;101374.13;5039618;28;20253;-76
2023/05/27 03:40:50;;;;;;;9.60;2.90;;;;;;;10.48;70.47;101368.88;5049460;28;20200;-76
2023/05/27 03:43:16;;;;;;;9.63;2.40;;;;;;;10.37;71.61;101367.63;5048923;28;20204;-72
2023/05/27 03:45:42;;;;;;;7.73;2.87;;;;;;;10.26;71.82;101369.06;5041875;28;20198;-70
2023/05/27 03:48:09;;;;;;;8.13;2.90;;;;;;;10.17;71.98;101366.09;5034874;28;20218;-72
2023/05/27 03:50:35;;;;;;;8.63;2.70;;;;;;;10.19;73.50;101370.59;5049155;28;20568;-73
2023/05/27 03:53:02;;;;;;;9.03;2.70;;;;;;;10.13;73.49;101365.13;5041958;28;20200;-71
2023/05/27 03:55:28;;;;;;;6.53;3.17;;;;;;;10.09;73.48;101368.53;5042333;28;20309;-69
2023/05/27 03:57:55;;;;;;;10.20;3.00;;;;;;;10.02;73.54;101370.09;5044252;28;20707;-68
2023/05/27 04:00:21;;;;;;;7.20;2.80;;;;;;;9.95;74.30;101373.38;5044160;28;20202;-68
2023/05/27 04:02:49;;;;;;;6.10;2.67;;;;;;;9.93;75.18;101376.81;5047447;28;20197;-69
2023/05/27 04:05:19;;;;;;;6.87;2.73;;;;;;;10.05;75.68;101372.81;5043753;28;20211;-68
2023/05/27 04:07:45;;;;;;;8.27;2.80;;;;;;;10.02;75.63;101370.09;5037819;28;20219;-68
2023/05/27 04:10:11;;;;;;;6.47;2.33;;;;;;;10.07;75.82;101383.47;5046628;28;20211;-68
2023/05/27 04:12:40;;;;;;;9.27;2.77;;;;;;;10.15;75.25;101381.03;5045965;28;20200;-69
2023/05/27 04:15:08;;;;;;;9.50;3.27;;;;;;;10.21;74.64;101387.47;5046433;28;20230;-68
2023/05/27 04:17:35;;;;;;;6.37;2.80;;;;;;;10.29;73.32;101375.34;5038594;28;20275;-69
2023/05/27 04:20:10;;;;;;;8.60;3.03;;;;;;;10.57;73.75;101374.44;5040003;28;20574;-69
2023/05/27 04:22:37;;;;;;;6.20;2.60;;;;;;;10.60;73.66;101378.91;5045036;28;20323;-70
2023/05/27 04:25:04;;;;;;;5.47;2.43;;;;;;;10.76;73.28;101378.47;5047360;28;20204;-69
2023/05/27 04:27:30;;;;;;;8.03;3.53;;;;;;;10.78;73.05;101382.06;5048879;28;20231;-71
2023/05/27 04:29:57;;;;;;;8.87;2.90;;;;;;;10.87;72.39;101381.47;5041787;28;20204;-72
2023/05/27 04:32:27;;;;;;;9.10;2.57;;;;;;;10.90;72.65;101385.09;5046259;28;20196;-73
2023/05/27 04:34:53;;;;;;;9.57;2.67;;;;;;;10.99;71.43;101381.78;5045795;28;20569;-72
2023/05/27 04:37:20;;;;;;;9.27;3.03;;;;;;;11.08;71.87;101392.63;5030717;28;20217;-75
2023/05/27 04:39:46;;;;;;;10.97;3.33;;;;;;;11.26;71.23;101389.59;5039899;28;20198;-77
2023/05/27 04:42:15;;;;;;;7.70;2.70;;;;;;;11.41;70.61;101384.69;5045382;28;20213;-79
2023/05/27 04:44:41;;;;;;;7.20;2.90;;;;;;;11.56;68.66;101394.78;5046858;28;20236;-76
2023/05/27 04:47:08;;;;;;;7.60;2.83;;;;;;;11.69;69.01;101383.66;5034574;28;20223;-78
2023/05/27 04:49:34;;;;;;;9.87;2.70;;;;;;;11.89;66.87;101381.50;5035731;28;20196;-79
2023/05/27 04:52:01;;;;;;;8.17;3.50;;;;;;;12.01;67.80;101386.19;5047095;28;20361;-79
2023/05/27 04:54:27;;;;;;;10.83;3.43;;;;;;;12.16;66.62;101382.16;5047276;28;20205;-78
2023/05/27 04:56:54;;;;;;;7.83;2.83;;;;;;;12.36;64.82;101385.22;5045788;28;20223;-79
2023/05/27 04:59:21;;;;;;;8.90;2.97;;;;;;;12.45;65.08;101390.78;5044700;28;20686;-73
2023/05/27 05:04:32;;;;;;;8.60;3.00;;;;;;;12.88;64.29;101394.34;5041990;28;20587;-73
2023/05/27 05:06:59;;;;;;;9.43;3.50;;;;;;;12.96;62.74;101387.41;5036274;28;20670;-70
2023/05/27 05:09:25;;;;;;;8.30;2.60;;;;;;;13.15;61.87;101391.28;5027095;28;20672;-70
2023/05/27 05:11:52;;;;;;;6.67;3.23;;;;;;;13.28;60.52;101385.38;5047079;28;20209;-70
2023/05/27 05:14:18;;;;;;;10.43;3.10;;;;;;;13.43;59.22;101390.06;5044344;28;20289;-70
2023/05/27 05:16:44;;;;;;;9.40;3.37;;;;;;;13.59;59.91;101388.56;5042339;28;20227;-70
2023/05/27 05:19:11;;;;;;;9.20;3.10;;;;;;;13.74;58.27;101381.75;5046746;28;20247;-70
2023/05/27 05:21:37;;;;;;;6.97;2.77;;;;;;;13.85;57.55;101381.91;5045938;28;20205;-70
2023/05/27 05:24:04;;;;;;;12.70;2.90;;;;;;;13.97;57.89;101381.22;5043148;28;20557;-70
2023/05/27 05:26:30;;;;;;;7.60;2.80;;;;;;;14.08;57.19;101377.84;5039041;28;20218;-68
2023/05/27 05:28:57;;;;;;;11.40;2.97;;;;;;;14.21;56.63;101378.03;5044115;28;20218;-70
2023/05/27 05:31:23;;;;;;;6.40;2.70;;;;;;;14.31;56.65;101375.50;5028314;28;20193;-70
2023/05/27 05:33:50;;;;;;;11.37;2.97;;;;;;;14.46;56.67;101377.53;5044769;28;20285;-69
2023/05/27 05:36:17;;;;;;;8.63;3.07;;;;;;;14.56;56.07;101378.56;5042459;28;20224;-68
2023/05/27 05:38:43;;;;;;;13.23;3.50;;;;;;;14.66;55.98;101380.44;5045531;28;20190;-68
2023/05/27 05:41:09;;;;;;;13.03;3.10;;;;;;;14.85;55.29;101387.81;5045830;28;20662;-70
2023/05/27 05:43:36;;;;;;;8.40;2.97;;;;;;;15.00;54.19;101381.75;5047054;28;20195;-67
2023/05/27 05:46:02;;;;;;;16.40;3.23;;;;;;;15.04;54.01;101384.47;5045321;28;20198;-69
2023/05/27 05:48:29;;;;;;;9.80;2.90;;;;;;;15.14;53.05;101385.44;5046275;28;20219;-70
2023/05/27 05:50:55;;;;;;;10.90;2.47;;;;;;;15.42;52.21;101388.41;5044149;28;20581;-70
2023/05/27 05:53:22;;;;;;;9.33;3.00;;;;;;;15.49;51.05;101388.47;5040768;28;20199;-67
2023/05/27 05:55:48;;;;;;;8.67;2.70;;;;;;;15.63;51.28;101386.00;5044196;28;20298;-69
2023/05/27 05:58:15;;;;;;;4.33;2.53;;;;;;;15.80;51.20;101400.38;5042680;28;20261;-70
2023/05/27 06:00:41;;;;;;;12.57;3.03;;;;;;;15.82;51.56;101389.69;5049652;28;20195;-68
2023/05/27 06:03:08;;;;;;;7.10;3.03;;;;;;;15.81;50.90;101387.91;5049025;28;20552;-69
2023/05/27 06:05:34;;;;;;;8.47;2.80;;;;;;;15.73;50.22;101389.63;5044932;28;20195;-70
2023/05/27 06:08:01;;;;;;;11.17;3.07;;;;;;;15.74;50.72;101391.41;5051173;28;20297;-69
2023/05/27 06:10:27;;;;;;;9.10;3.03;;;;;;;15.74;50.59;101391.41;5048749;28;20203;-67
2023/05/27 06:12:53;;;;;;;7.30;3.07;;;;;;;15.77;51.07;101394.09;5047548;28;20218;-69
2023/05/27 06:15:20;;;;;;;7.23;2.93;;;;;;;16.07;50.76;101389.00;5049950;28;20290;-69
2023/05/27 06:17:47;;;;;;;11.90;2.57;;;;;;;16.27;49.71;101392.69;5047087;28;20226;-68
2023/05/27 06:20:13;;;;;;;8.57;2.93;;;;;;;16.13;49.37;101393.50;5049842;28;20194;-68
2023/05/27 06:22:40;;;;;;;8.03;3.00;;;;;;;16.08;49.26;101393.47;5049508;28;20195;-72
2023/05/27 06:25:06;;;;;;;7.33;3.17;;;;;;;16.12;49.63;101389.03;5048386;28;20210;-70
2023/05/27 06:27:33;;;;;;;11.67;3.03;;;;;;;16.15;49.33;101387.28;5058981;28;20309;-68
2023/05/27 06:29:59;;;;;;;15.47;3.27;;;;;;;16.25;48.92;101391.78;5047411;28;20226;-71
2023/05/27 06:32:26;;;;;;;9.17;3.10;;;;;;;16.27;49.83;101389.13;5048032;28;20210;-69
2023/05/27 06:34:52;;;;;;;7.07;3.13;;;;;;;16.25;48.72;101388.22;5050094;28;20241;-68
2023/05/27 06:37:19;;;;;;;15.67;3.33;;;;;;;16.08;49.33;101387.22;5047433;28;20297;-68
2023/05/27 06:39:45;;;;;;;10.87;3.00;;;;;;;16.26;49.61;101382.88;5049712;28;20202;-70
2023/05/27 06:42:12;;;;;;;10.30;3.23;;;;;;;16.34;48.89;101385.59;5046964;28;20207;-69
2023/05/27 06:44:39;;;;;;;9.27;2.90;;;;;;;16.43;48.74;101384.78;5047503;28;20282;-70
2023/05/27 06:47:05;;;;;;;9.90;2.70;;;;;;;16.55;48.83;101387.50;5043751;28;20218;-71
2023/05/27 06:49:32;;;;;;;11.37;3.00;;;;;;;16.72;48.74;101398.31;5050596;28;20629;-70
2023/05/27 06:51:58;;;;;;;9.30;2.97;;;;;;;16.70;48.00;101387.59;5042011;28;20196;-68
2023/05/27 06:54:25;;;;;;;9.77;3.47;;;;;;;16.89;48.05;101393.94;5043449;28;20195;-71
2023/05/27 06:56:51;;;;;;;10.80;3.33;;;;;;;17.01;47.14;101387.72;5048814;28;20598;-69
2023/05/27 06:59:18;;;;;;;8.13;3.10;;;;;;;16.99;47.57;101387.72;5049801;28;20207;-70
2023/05/27 07:01:44;;;;;;;8.90;3.23;;;;;;;17.24;46.37;101388.69;5049091;28;20587;-69
2023/05/27 07:04:11;;;;;;;9.50;3.60;;;;;;;18.10;45.39;101377.13;5045024;28;20203;-70
2023/05/27 07:06:37;;;;;;;10.50;2.90;;;;;;;19.59;41.54;101367.50;5046694;28;20254;-70
2023/05/27 07:09:04;;;;;;;6.23;3.00;;;;;;;20.88;38.29;101380.56;5048335;28;20698;-70
2023/05/27 07:11:31;;;;;;;9.20;3.20;;;;;;;21.90;35.49;101381.72;5047826;28;20210;-69
2023/05/27 07:13:57;;;;;;;8.17;2.80;;;;;;;21.87;34.00;101377.28;5042844;28;20199;-70
2023/05/27 07:16:24;;;;;;;6.33;3.03;;;;;;;21.84;35.05;101374.63;5046634;28;20471;-70
2023/05/27 07:18:51;;;;;;;12.70;3.20;;;;;;;21.75;34.85;101382.00;5040473;28;20312;-69
2023/05/27 07:21:18;;;;;;;13.73;3.47;;;;;;;21.56;35.30;101371.50;5049961;28;20195;-70
2023/05/27 07:23:44;;;;;;;8.93;3.00;;;;;;;22.58;34.06;101362.50;5045596;28;20203;-70
2023/05/27 07:26:10;;;;;;;11.27;3.37;;;;;;;23.69;32.27;101366.31;5042682;28;20220;-71
2023/05/27 07:28:37;;;;;;;9.87;2.70;;;;;;;24.32;30.99;101375.50;5044882;28;20684;-68
2023/05/27 07:31:04;;;;;;;10.67;3.80;;;;;;;24.16;30.14;101366.88;5048252;28;20226;-68
2023/05/27 07:33:31;;;;;;;11.03;3.03;;;;;;;23.71;31.38;101358.16;5029361;28;20202;-68
2023/05/27 07:35:57;;;;;;;9.20;3.13;;;;;;;24.18;31.33;101359.59;5047777;28;20306;-67
2023/05/27 07:38:24;;;;;;;9.00;2.80;;;;;;;23.33;31.36;101353.66;5043065;28;20196;-72
2023/05/27 07:40:50;;;;;;;9.70;3.20;;;;;;;23.69;31.66;101358.19;5020689;28;20195;-69
2023/05/27 07:43:17;;;;;;;9.13;3.33;;;;;;;24.13;30.74;101348.03;5047659;28;20196;-68
2023/05/27 07:45:43;;;;;;;9.23;2.90;;;;;;;24.48;30.42;101354.31;5051383;28;20588;-69
2023/05/27 07:48:10;;;;;;;7.67;2.70;;;;;;;24.77;30.08;101343.50;5042753;28;20218;-66
2023/05/27 07:50:36;;;;;;;7.20;2.90;;;;;;;24.36;30.19;101361.81;5045266;28;20190;-66
2023/05/27 07:53:03;;;;;;;10.50;3.40;;;;;;;24.20;30.67;101360.47;5044881;28;20202;-68
2023/05/27 07:55:31;;;;;;;8.70;3.30;;;;;;;23.91;31.69;101347.69;5046328;28;20199;-69
2023/05/27 07:57:57;;;;;;;10.20;3.03;;;;;;;24.35;30.46;101349.22;5047524;28;20223;-68
2023/05/27 08:00:23;;;;;;;8.30;2.90;;;;;;;24.54;29.54;101351.41;5045830;28;20357;-67
2023/05/27 08:02:50;;;;;;;13.90;3.40;;;;;;;24.56;29.92;101353.16;5046613;28;20375;-67
2023/05/27 08:05:17;;;;;;;7.97;2.47;;;;;;;23.19;31.08;101348.53;5042208;28;20238;-68
2023/05/27 08:07:43;;;;;;;10.23;2.83;;;;;;;22.02;33.91;101349.16;5043279;28;20223;-69
2023/05/27 08:10:09;;;;;;;11.03;3.13;;;;;;;22.05;34.96;101340.16;5044912;28;20203;-68
2023/05/27 08:12:36;;;;;;;9.10;3.20;;;;;;;22.29;34.34;101342.34;5042688;28;20201;-68
2023/05/27 08:15:02;;;;;;;9.83;3.37;;;;;;;22.60;33.98;101337.22;5045218;28;20546;-69
2023/05/27 08:17:29;;;;;;;7.43;2.90;;;;;;;22.72;33.71;101334.25;5043944;28;20211;-68
2023/05/27 08:19:55;;;;;;;12.47;3.10;;;;;;;22.71;34.46;101337.88;5046372;28;20191;-68
2023/05/27 08:22:22;;;;;;;14.27;3.47;;;;;;;22.10;34.93;101328.34;5036843;28;20199;-69
2023/05/27 08:24:51;;;;;;;9.43;3.50;;;;;;;21.95;35.05;101325.00;5044561;28;20201;-68
2023/05/27 08:27:18;;;;;;;11.53;3.13;;;;;;;21.71;35.01;101324.53;5046629;28;20230;-68
2023/05/27 08:29:44;;;;;;;9.43;3.00;;;;;;;21.48;36.07;101319.50;5048022;28;20242;-68
2023/05/27 08:32:11;;;;;;;10.97;3.20;;;;;;;21.00;36.64;101317.56;5042762;28;20777;-68
2023/05/27 08:34:38;;;;;;;6.70;3.17;;;;;;;21.13;38.03;101302.97;5043591;28;20250;-68
2023/05/27 08:37:05;;;;;;;11.53;3.80;;;;;;;20.56;37.74;101316.38;5045619;28;20219;-68
2023/05/27 08:39:31;;;;;;;9.63;3.10;;;;;;;20.76;38.01;101310.69;5047370;28;20225;-70
2023/05/27 08:42:00;;;;;;;7.27;3.20;;;;;;;20.33;38.46;101297.75;5045952;28;20199;-71
2023/05/27 08:44:26;;;;;;;8.37;3.40;;;;;;;20.20;40.37;101302.41;5044275;28;20286;-70
2023/05/27 08:46:55;;;;;;;13.53;3.23;;;;;;;20.51;39.08;101304.78;5042696;28;20250;-71
2023/05/27 08:49:22;;;;;;;11.07;3.17;;;;;;;20.61;39.50;101301.03;5041901;28;20326;-68
2023/05/27 08:51:50;;;;;;;8.33;3.00;;;;;;;20.43;40.31;101306.69;5039246;28;20286;-70
2023/05/27 08:54:20;;;;;;;8.17;3.00;;;;;;;20.64;39.12;101301.00;5044283;28;20614;-70
2023/05/27 08:56:52;;;;;;;8.77;3.73;;;;;;;20.80;38.95;101297.16;5043567;28;20256;-70
2023/05/27 08:59:18;;;;;;;11.70;3.57;;;;;;;20.98;39.40;101296.03;5045228;28;20283;-70
2023/05/27 09:01:45;;;;;;;11.93;3.57;;;;;;;20.85;39.77;101295.34;5042618;28;20257;-71
2023/05/27 09:04:13;;;;;;;7.93;3.10;;;;;;;21.15;38.61;101288.56;5044865;28;20201;-71
2023/05/27 09:06:39;;;;;;;12.43;3.70;;;;;;;20.87;40.00;101304.28;5045428;28;20219;-70
2023/05/27 09:09:08;;;;;;;16.53;3.47;;;;;;;20.96;39.56;101287.09;5045635;28;20219;-73
2023/05/27 09:11:39;;;;;;;10.93;3.60;;;;;;;21.15;40.10;101276.91;5047678;28;20191;-72
2023/05/27 09:14:05;;;;;;;10.63;3.53;;;;;;;21.00;38.99;101288.81;5040220;28;20518;-71
2023/05/27 09:16:32;;;;;;;10.88;3.35;;;;;;;20.98;39.72;101276.28;5041153;28;20722;-70
2023/05/27 09:18:58;;;;;;;11.10;4.20;;;;;;;21.05;39.88;101275.28;5040163;28;20559;-71
2023/05/27 09:21:26;;;;;;;8.80;3.67;;;;;;;21.07;39.89;101273.44;5043192;28;20196;-71
2023/05/27 09:23:59;;;;;;;7.28;2.88;;;;;;;21.22;40.70;101268.72;5047104;28;20671;-70
2023/05/27 09:26:27;;;;;;;13.57;3.55;;;;;;;20.99;39.68;101270.88;5050684;28;20226;-69
2023/05/27 09:28:53;;;;;;;12.07;4.47;;;;;;;20.84;40.33;101268.44;5044587;28;20317;-71
2023/05/27 09:31:20;;;;;;;14.20;3.63;;;;;;;20.86;40.95;101264.81;5045027;28;20199;-72
2023/05/27 09:33:47;;;;;;;10.60;4.00;;;;;;;21.18;40.45;101266.06;5044460;28;20199;-70
2023/05/27 09:36:20;;;;;;;9.90;3.65;;;;;;;21.60;40.28;101264.50;5045749;28;20706;-69
2023/05/27 09:38:48;;;;;;;8.20;3.53;;;;;;;21.83;38.84;101267.66;5048567;28;20281;-68
2023/05/27 09:41:14;;;;;;;10.45;3.45;;;;;;;21.87;38.68;101265.81;5050716;28;20203;-69
2023/05/27 09:43:41;;;;;;;6.53;3.40;;;;;;;21.37;39.29;101261.31;5049570;28;20200;-68
2023/05/27 09:46:12;;;;;;;11.75;4.05;;;;;;;21.60;39.28;101256.41;5050457;28;20219;-68
2023/05/27 09:48:40;;;;;;;10.70;3.45;;;;;;;21.80;39.57;101251.53;5049672;28;20211;-68
2023/05/27 09:51:06;;;;;;;10.00;3.17;;;;;;;22.08;38.52;101251.06;5045509;28;20329;-70
2023/05/27 09:53:34;;;;;;;8.88;3.60;;;;;;;21.75;37.92;101250.75;5057757;28;20238;-68
2023/05/27 09:56:01;;;;;;;9.85;3.47;;;;;;;21.53;39.31;101246.66;5052762;28;20213;-69
2023/05/27 09:58:28;;;;;;;7.70;3.25;;;;;;;21.61;39.26;101247.41;5052617;28;20201;-69
2023/05/27 10:00:56;;;;;;;14.90;3.78;;;;;;;21.85;39.74;101237.97;5046848;28;20565;-71
2023/05/27 10:03:27;;;;;;;13.75;3.53;;;;;;;21.98;39.24;101249.41;5049697;28;20199;-72
2023/05/27 10:05:55;;;;;;;8.15;3.63;;;;;;;21.78;38.32;101233.63;5048286;28;20201;-69
2023/05/27 10:08:22;;;;;;;9.13;3.50;;;;;;;21.79;38.97;101233.59;5045864;28;20223;-69
2023/05/27 10:10:52;;;;;;;8.32;3.47;;;;;;;22.05;39.03;101222.31;5042445;28;20285;-70
2023/05/27 10:13:20;;;;;;;11.60;3.28;;;;;;;22.28;38.25;101229.91;5047063;28;20229;-70
2023/05/27 10:15:50;;;;;;;8.20;3.17;;;;;;;22.34;38.66;101220.81;5051473;28;20729;-69
2023/05/27 10:18:25;;;;;;;10.80;3.50;;;;;;;22.12;38.63;101225.78;5029744;28;20199;-70
2023/05/27 10:20:53;;;;;;;8.35;3.20;;;;;;;22.19;38.42;101227.44;5046733;28;20205;-70
2023/05/27 10:23:26;;;;;;;14.35;3.78;;;;;;;22.15;38.43;101217.63;5052164;28;20211;-70
2023/05/27 10:25:55;;;;;;;12.38;4.43;;;;;;;22.24;38.81;101220.13;5046778;28;20203;-69
2023/05/27 10:28:26;;;;;;;7.90;3.65;;;;;;;22.29;38.73;101215.50;5047531;28;20342;-70
2023/05/27 10:31:02;;;;;;;11.13;3.50;;;;;;;21.94;38.24;101215.31;5044203;28;20191;-69
2023/05/27 10:33:32;;;;;;;12.80;3.42;;;;;;;21.95;39.81;101217.09;5046077;28;20290;-69
2023/05/27 10:36:12;;;;;;;10.88;3.15;;;;;;;21.95;38.52;101217.09;5046866;28;20714;-70
2023/05/27 10:38:42;;;;;;;7.10;3.42;;;;;;;21.81;39.70;101225.47;5049401;28;20197;-69
2023/05/27 10:41:09;;;;;;;12.55;3.67;;;;;;;21.72;39.65;101207.66;5051760;28;20575;-69
2023/05/27 10:43:36;;;;;;;8.18;3.10;;;;;;;22.00;39.49;101209.78;5047224;28;20286;-69
2023/05/27 10:46:04;;;;;;;8.32;3.17;;;;;;;22.35;39.11;101211.78;5049743;28;20222;-69
2023/05/27 10:48:31;;;;;;;7.65;3.30;;;;;;;22.41;38.20;101204.44;5046860;28;20212;-69
2023/05/27 10:50:58;;;;;;;9.43;3.47;;;;;;;22.74;38.16;101199.19;5031130;28;20231;-69
2023/05/27 10:53:26;;;;;;;9.15;3.47;;;;;;;23.23;38.01;101204.31;5047200;28;20198;-70
2023/05/27 10:55:53;;;;;;;12.65;3.78;;;;;;;23.36;36.37;101204.88;5046373;28;20198;-69
2023/05/27 10:58:20;;;;;;;8.70;3.17;;;;;;;23.54;36.59;101193.56;5064542;23;20223;-68
2023/05/27 11:00:50;;;;;;;10.80;3.67;;;;;;;23.58;36.51;101191.69;5049605;28;20734;-68
2023/05/27 11:03:21;;;;;;;14.27;4.47;;;;;;;23.39;35.33;101186.75;5021080;28;20210;-70
2023/05/27 11:05:58;;;;;;;10.65;3.28;;;;;;;23.37;36.01;101182.31;5050625;28;20229;-69
2023/05/27 11:08:25;;;;;;;7.18;3.10;;;;;;;23.64;35.71;101175.31;5048204;28;20226;-70
2023/05/27 11:11:06;;;;;;;10.35;3.35;;;;;;;23.74;35.83;101168.72;5047110;28;20222;-69
2023/05/27 11:13:35;;;;;;;8.95;3.30;;;;;;;23.50;35.67;101177.47;5047334;28;20226;-70
2023/05/27 11:16:03;;;;;;;8.63;3.80;;;;;;;23.28;35.27;101177.19;5051375;28;20195;-69
2023/05/27 11:18:42;;;;;;;9.30;3.38;;;;;;;23.08;36.78;101181.25;5048615;28;20268;-68
2023/05/27 11:21:09;;;;;;;9.32;3.65;;;;;;;23.32;37.11;101168.94;5051193;28;20212;-67
2023/05/27 11:23:42;;;;;;;7.55;3.20;;;;;;;23.20;36.36;101174.66;5042245;28;20293;-68
2023/05/27 11:26:21;;;;;;;12.43;4.43;;;;;;;22.67;37.06;101162.47;5050944;28;20294;-66